Time;durP1;ratioP1;P1;durP2;ratioP2;P2;SDS_P1;SDS_P2;PMS_P1;PMS_P2;Temp;Humidity;BMP_temperature;BMP_pressure;BME280_temperature;BME280_humidity;BME280_pressure;Samples;Min_cycle;Max_cycle;Signal;HPM_P1;HPM_P2
2023/10/13 00:01:08;;;;;;;;;;;16.20;99.90;;;;;;4864175;29;19928;-87
2023/10/13 00:03:33;;;;;;;;;;;16.20;99.90;;;;;;4862640;29;20386;-84
2023/10/13 00:06:03;;;;;;;;;;;16.20;99.90;;;;;;4864491;29;19939;-85
2023/10/13 00:08:29;;;;;;;;;;;16.20;99.90;;;;;;4862976;29;20447;-83
2023/10/13 00:10:59;;;;;;;;;;;16.20;99.90;;;;;;4864007;29;19957;-83
2023/10/13 00:13:26;;;;;;;;;;;16.20;99.90;;;;;;4864557;29;19928;-86
2023/10/13 00:15:58;;;;;;;;;;;16.20;99.90;;;;;;4863164;29;19986;-85
2023/10/13 00:18:27;;;;;;;;;;;16.20;99.90;;;;;;4864610;29;19932;-83
2023/10/13 00:20:56;;;;;;;;;;;16.20;99.90;;;;;;4864180;29;20379;-83
2023/10/13 00:23:22;;;;;;;;;;;16.30;99.90;;;;;;4863398;29;19928;-84
2023/10/13 00:25:56;;;;;;;;;;;16.30;99.90;;;;;;4862933;29;20411;-83
2023/10/13 00:28:26;;;;;;;;;;;16.30;99.90;;;;;;4864207;29;20284;-84
2023/10/13 00:30:58;;;;;;;;;;;16.30;99.90;;;;;;4863682;29;19928;-85
2023/10/13 00:33:25;;;;;;;;;;;16.20;99.90;;;;;;4863778;29;20023;-84
2023/10/13 00:35:52;;;;;;;;;;;16.30;99.90;;;;;;4863657;29;19929;-83
2023/10/13 00:38:19;;;;;;;;;;;16.30;99.90;;;;;;4863674;29;19928;-84
2023/10/13 00:40:55;;;;;;;;;;;16.30;99.90;;;;;;4863556;29;19939;-85
2023/10/13 00:48:32;;;;;;;;;;;16.30;99.90;;;;;;4863557;29;19951;-85
2023/10/13 00:51:02;;;;;;;;;;;16.30;99.90;;;;;;4863351;29;19950;-87
2023/10/13 00:53:29;;;;;;;;;;;16.30;99.90;;;;;;4863820;29;19928;-84
2023/10/13 00:55:57;;;;;;;;;;;16.30;99.90;;;;;;4863377;29;19932;-85
2023/10/13 00:58:25;;;;;;;;;;;16.40;99.90;;;;;;4862186;29;19935;-83
2023/10/13 01:00:56;;;;;;;;;;;16.30;99.90;;;;;;4862494;29;20018;-84
2023/10/13 01:03:26;;;;;;;;;;;16.30;99.90;;;;;;4861854;29;19965;-85
2023/10/13 01:05:56;;;;;;;;;;;16.30;99.90;;;;;;4862711;29;19928;-85
2023/10/13 01:08:34;;;;;;;;;;;16.40;99.90;;;;;;4862127;29;20009;-85
2023/10/13 01:11:00;;;;;;;;;;;16.40;99.90;;;;;;4862480;29;19928;-85
2023/10/13 01:13:26;;;;;;;;;;;16.30;99.90;;;;;;4863068;29;19984;-86
2023/10/13 01:15:52;;;;;;;;;;;16.40;99.90;;;;;;4862051;29;19949;-84
2023/10/13 01:18:18;;;;;;;;;;;16.40;99.90;;;;;;4862340;29;19929;-85
2023/10/13 01:20:45;;;;;;;;;;;16.40;99.90;;;;;;4862928;29;19975;-86
2023/10/13 01:23:18;;;;;;;;;;;16.40;99.90;;;;;;4846990;29;19928;-85
2023/10/13 01:25:44;;;;;;;;;;;16.40;99.90;;;;;;4862275;29;19936;-84
2023/10/13 01:28:15;;;;;;;;;;;16.40;99.90;;;;;;4861596;29;19928;-85
2023/10/13 01:30:41;;;;;;;;;;;16.30;99.90;;;;;;4862742;29;19928;-85
2023/10/13 01:33:08;;;;;;;;;;;16.40;99.90;;;;;;4863051;29;19935;-84
2023/10/13 01:35:42;;;;;;;;;;;16.40;99.90;;;;;;4861755;29;19932;-85
2023/10/13 01:38:08;;;;;;;;;;;16.40;99.90;;;;;;4861905;29;19993;-84
2023/10/13 01:40:34;;;;;;;;;;;16.40;99.90;;;;;;4862605;29;20034;-84
2023/10/13 01:43:00;;;;;;;;;;;16.40;99.90;;;;;;4861332;29;19935;-86
2023/10/13 01:45:28;;;;;;;;;;;16.40;99.90;;;;;;4862571;29;20022;-86
2023/10/13 01:47:54;;;;;;;;;;;16.40;99.90;;;;;;4861488;29;20387;-84
2023/10/13 01:50:27;;;;;;;;;;;16.40;99.90;;;;;;4862374;29;20300;-84
2023/10/13 01:53:05;;;;;;;;;;;16.40;99.90;;;;;;4861768;29;19928;-84
2023/10/13 01:55:39;;;;;;;;;;;16.40;99.90;;;;;;4862192;29;20018;-85
2023/10/13 01:58:09;;;;;;;;;;;16.40;99.90;;;;;;4862589;29;19932;-83
2023/10/13 02:00:41;;;;;;;;;;;16.30;99.90;;;;;;4861271;29;19936;-84
2023/10/13 02:03:15;;;;;;;;;;;16.40;99.90;;;;;;4862311;29;20022;-84
2023/10/13 02:05:44;;;;;;;;;;;16.40;99.90;;;;;;4860756;29;20253;-85
2023/10/13 02:08:11;;;;;;;;;;;16.40;99.90;;;;;;4861878;29;19928;-84
2023/10/13 02:10:43;;;;;;;;;;;16.40;99.90;;;;;;4862525;29;20015;-84
2023/10/13 02:13:15;;;;;;;;;;;16.40;99.90;;;;;;4863059;29;20043;-86
2023/10/13 02:15:42;;;;;;;;;;;16.30;99.90;;;;;;4862038;29;20440;-86
2023/10/13 02:18:09;;;;;;;;;;;16.30;99.90;;;;;;4861975;29;19928;-87
2023/10/13 02:20:41;;;;;;;;;;;16.30;99.90;;;;;;4862508;29;19987;-85
2023/10/13 02:23:10;;;;;;;;;;;16.40;99.90;;;;;;4861020;29;19928;-87
2023/10/13 02:25:42;;;;;;;;;;;16.40;99.90;;;;;;4861824;29;19987;-84
2023/10/13 02:28:09;;;;;;;;;;;16.30;99.90;;;;;;4860976;29;19951;-85
2023/10/13 02:30:38;;;;;;;;;;;16.40;99.90;;;;;;4860994;29;19983;-82
2023/10/13 02:33:06;;;;;;;;;;;16.40;99.90;;;;;;4861748;29;20313;-84
2023/10/13 02:35:41;;;;;;;;;;;16.30;99.90;;;;;;4845651;29;20023;-84
2023/10/13 02:38:12;;;;;;;;;;;16.40;99.90;;;;;;4862320;29;19934;-86
2023/10/13 02:40:38;;;;;;;;;;;16.30;99.90;;;;;;4861674;29;19928;-86
2023/10/13 02:43:05;;;;;;;;;;;16.30;99.90;;;;;;4862045;29;19938;-84
2023/10/13 02:45:31;;;;;;;;;;;16.30;99.90;;;;;;4862088;29;19932;-84
2023/10/13 02:48:11;;;;;;;;;;;16.30;99.90;;;;;;4860670;29;19944;-87
2023/10/13 02:50:38;;;;;;;;;;;16.30;99.90;;;;;;4861393;29;19976;-85
2023/10/13 02:53:12;;;;;;;;;;;16.30;99.90;;;;;;4861514;29;20027;-87
2023/10/13 02:55:39;;;;;;;;;;;16.30;99.90;;;;;;4862109;29;19935;-85
2023/10/13 02:58:04;;;;;;;;;;;16.40;99.90;;;;;;4860781;29;19944;-83
2023/10/13 03:00:31;;;;;;;;;;;16.40;99.90;;;;;;4861387;29;19935;-85
2023/10/13 03:03:00;;;;;;;;;;;16.40;99.90;;;;;;4861071;29;19935;-87
2023/10/13 03:05:30;;;;;;;;;;;16.40;99.90;;;;;;4861776;29;20011;-86
2023/10/13 03:07:58;;;;;;;;;;;16.40;99.90;;;;;;4861256;29;19928;-84
2023/10/13 03:10:28;;;;;;;;;;;16.40;99.90;;;;;;4861390;29;20379;-85
2023/10/13 03:12:54;;;;;;;;;;;16.40;99.90;;;;;;4861350;29;20395;-85
2023/10/13 03:15:30;;;;;;;;;;;16.40;99.90;;;;;;4860375;29;20011;-86
2023/10/13 03:17:58;;;;;;;;;;;16.40;99.90;;;;;;4863188;29;20032;-83
2023/10/13 03:20:31;;;;;;;;;;;16.40;99.90;;;;;;4865070;29;20039;-85
2023/10/13 03:23:00;;;;;;;;;;;16.40;99.90;;;;;;4865136;29;19928;-86
2023/10/13 03:30:30;;;;;;;;;;;16.30;99.90;;;;;;4865061;29;19928;-86
2023/10/13 03:32:56;;;;;;;;;;;16.30;99.90;;;;;;4864995;29;19928;-85
2023/10/13 03:35:24;;;;;;;;;;;16.30;99.90;;;;;;4865466;29;19928;-84
2023/10/13 03:37:54;;;;;;;;;;;16.40;99.90;;;;;;4865259;29;19928;-84
2023/10/13 03:43:09;;;;;;;;;;;16.30;99.90;;;;;;4864512;29;20019;-84
2023/10/13 03:45:39;;;;;;;;;;;16.40;99.90;;;;;;4863991;29;19976;-85
2023/10/13 03:48:08;;;;;;;;;;;16.40;99.90;;;;;;4866092;29;20427;-86
2023/10/13 03:50:48;;;;;;;;;;;16.30;99.90;;;;;;4865465;29;20415;-85
2023/10/13 03:53:14;;;;;;;;;;;16.30;99.90;;;;;;4866845;29;19932;-85
2023/10/13 03:55:40;;;;;;;;;;;16.30;99.90;;;;;;4866814;29;19952;-87
2023/10/13 03:58:06;;;;;;;;;;;16.40;99.90;;;;;;4880211;29;19929;-87
2023/10/13 04:00:32;;;;;;;;;;;16.30;99.90;;;;;;4864430;29;19985;-86
2023/10/13 04:03:09;;;;;;;;;;;16.30;99.90;;;;;;4863155;29;20332;-85
2023/10/13 04:09:37;;;;;;;;;;;16.30;99.90;;;;;;4864304;29;20068;-86
2023/10/13 04:16:14;;;;;;;;;;;16.30;99.90;;;;;;4864079;29;19928;-86
2023/10/13 04:18:47;;;;;;;;;;;16.30;99.90;;;;;;4863638;29;20296;-85
2023/10/13 04:32:28;;;;;;;;;;;16.20;99.90;;;;;;4863436;29;20070;-84
2023/10/13 04:37:54;;;;;;;;;;;16.20;99.90;;;;;;4863696;29;20383;-85
2023/10/13 04:40:24;;;;;;;;;;;16.20;99.90;;;;;;4863623;29;20018;-85
2023/10/13 04:42:53;;;;;;;;;;;16.20;99.90;;;;;;4863316;29;20407;-89
2023/10/13 04:48:13;;;;;;;;;;;16.20;99.90;;;;;;4863454;29;20387;-85
2023/10/13 04:50:45;;;;;;;;;;;16.20;99.90;;;;;;4862874;29;20031;-87
2023/10/13 04:53:45;;;;;;;;;;;16.20;99.90;;;;;;4862773;29;19978;-85
2023/10/13 04:59:17;;;;;;;;;;;16.20;99.90;;;;;;4821926;29;20019;-86
2023/10/13 05:04:22;;;;;;;;;;;16.20;99.90;;;;;;4863122;29;19940;-84
2023/10/13 06:28:43;;;;;;;;;;;16.10;99.90;;;;;;4861905;29;20072;-88
2023/10/13 06:31:22;;;;;;;;;;;16.10;99.90;;;;;;4862001;29;19928;-86
2023/10/13 06:33:48;;;;;;;;;;;16.20;99.90;;;;;;4860905;29;19929;-85
2023/10/13 06:36:13;;;;;;;;;;;16.20;99.90;;;;;;4860894;29;19980;-86
2023/10/13 06:38:39;;;;;;;;;;;16.20;99.90;;;;;;4861653;29;19929;-86
2023/10/13 06:41:06;;;;;;;;;;;16.30;99.90;;;;;;4861730;29;19932;-85
2023/10/13 06:43:42;;;;;;;;;;;16.30;99.90;;;;;;4860660;29;20287;-88
2023/10/13 06:46:16;;;;;;;;;;;16.30;99.90;;;;;;4862705;29;19928;-86
2023/10/13 06:48:42;;;;;;;;;;;16.40;99.90;;;;;;4847364;29;19929;-88
2023/10/13 06:51:25;;;;;;;;;;;16.40;99.90;;;;;;4860567;29;19951;-87
2023/10/13 06:53:56;;;;;;;;;;;16.40;99.90;;;;;;4845722;29;19986;-88
2023/10/13 06:56:22;;;;;;;;;;;16.40;99.90;;;;;;4860049;29;19928;-86
2023/10/13 06:58:48;;;;;;;;;;;16.40;99.90;;;;;;4860577;29;19990;-87
2023/10/13 07:01:22;;;;;;;;;;;16.50;99.90;;;;;;4861321;29;19936;-85
2023/10/13 07:03:53;;;;;;;;;;;16.50;99.90;;;;;;4861233;29;21512;-89
2023/10/13 07:06:22;;;;;;;;;;;16.50;99.90;;;;;;4861601;29;20009;-88
2023/10/13 07:08:54;;;;;;;;;;;16.50;99.90;;;;;;4861166;29;19936;-85
2023/10/13 07:11:38;;;;;;;;;;;16.50;99.90;;;;;;4861305;29;19929;-87
2023/10/13 07:14:10;;;;;;;;;;;16.50;99.90;;;;;;4860007;29;19928;-87
2023/10/13 07:16:46;;;;;;;;;;;16.60;99.90;;;;;;4861878;29;20000;-87
2023/10/13 07:19:16;;;;;;;;;;;16.50;99.90;;;;;;4861402;29;20031;-86
2023/10/13 07:21:45;;;;;;;;;;;16.60;99.90;;;;;;4862097;29;19928;-88
2023/10/13 07:24:15;;;;;;;;;;;16.50;99.90;;;;;;4861060;29;20268;-87
2023/10/13 07:26:49;;;;;;;;;;;16.50;99.90;;;;;;4861412;29;20261;-86
2023/10/13 07:29:15;;;;;;;;;;;16.50;99.90;;;;;;4860120;29;19932;-84
2023/10/13 07:31:44;;;;;;;;;;;16.60;99.90;;;;;;4860004;29;20349;-84
2023/10/13 07:34:24;;;;;;;;;;;16.60;99.90;;;;;;4860300;29;19936;-86
2023/10/13 07:36:51;;;;;;;;;;;16.60;99.90;;;;;;4861727;29;19928;-84
2023/10/13 07:39:25;;;;;;;;;;;16.60;99.90;;;;;;4861660;29;19929;-85
2023/10/13 07:42:03;;;;;;;;;;;16.60;99.90;;;;;;4861120;29;19928;-85
2023/10/13 07:44:33;;;;;;;;;;;16.60;99.90;;;;;;4861936;29;19935;-91
2023/10/13 07:46:59;;;;;;;;;;;16.70;99.90;;;;;;4844840;29;19928;-87
2023/10/13 07:49:31;;;;;;;;;;;16.60;99.90;;;;;;4860991;29;19939;-84
2023/10/13 07:52:06;;;;;;;;;;;16.70;99.90;;;;;;4861096;29;19929;-89
2023/10/13 07:54:39;;;;;;;;;;;16.70;99.90;;;;;;4844738;29;19928;-87
2023/10/13 07:57:07;;;;;;;;;;;16.70;99.90;;;;;;4860505;29;19990;-87
2023/10/13 07:59:36;;;;;;;;;;;16.70;99.90;;;;;;4860845;29;19928;-88
2023/10/13 08:02:33;;;;;;;;;;;16.70;99.90;;;;;;4860773;29;20398;-87
2023/10/13 08:04:57;;;;;;;;;;;16.70;99.90;;;;;;4862676;29;19928;-89
2023/10/13 08:07:27;;;;;;;;;;;16.80;99.90;;;;;;4863428;29;19935;-86
2023/10/13 08:09:57;;;;;;;;;;;16.70;99.90;;;;;;4864007;29;19928;-89
2023/10/13 08:12:23;;;;;;;;;;;16.70;99.90;;;;;;4863016;29;19928;-89
2023/10/13 08:14:48;;;;;;;;;;;16.80;99.90;;;;;;4863886;29;19935;-89
2023/10/13 08:17:14;;;;;;;;;;;16.80;99.90;;;;;;4863979;29;20030;-88
2023/10/13 08:19:41;;;;;;;;;;;16.80;99.90;;;;;;4864309;29;20000;-85
2023/10/13 08:32:36;;;;;;;;;;;16.90;99.90;;;;;;4863360;29;19947;-87
2023/10/13 08:37:46;;;;;;;;;;;16.90;99.90;;;;;;4862319;29;20395;-88
2023/10/13 08:40:43;;;;;;;;;;;17.00;99.90;;;;;;4864193;29;20034;-85
2023/10/13 08:43:11;;;;;;;;;;;17.00;99.90;;;;;;4863052;29;19936;-84
2023/10/13 08:48:12;;;;;;;;;;;17.10;99.90;;;;;;4863110;29;19935;-84
2023/10/13 08:50:52;;;;;;;;;;;17.30;99.90;;;;;;4863812;29;19932;-86
2023/10/13 09:01:37;;;;;;;;;;;17.60;99.90;;;;;;4863100;29;19976;-84
2023/10/13 09:09:34;;;;;;;;;;;17.80;99.90;;;;;;4863031;29;20264;-85
2023/10/13 09:12:10;;;;;;;;;;;17.90;99.90;;;;;;4863983;29;19993;-87
2023/10/13 09:14:47;;;;;;;;;;;18.00;99.90;;;;;;4863182;29;19929;-84
2023/10/13 09:17:34;;;;;;;;;;;18.00;99.90;;;;;;4863125;29;19984;-84
2023/10/13 09:20:11;;;;;;;;;;;18.10;99.90;;;;;;4863252;29;19929;-86
2023/10/13 09:22:37;;;;;;;;;;;18.10;99.90;;;;;;4862916;29;19932;-85
2023/10/13 09:25:04;;;;;;;;;;;18.20;99.90;;;;;;4862870;29;19928;-86
2023/10/13 09:27:32;;;;;;;;;;;18.30;99.90;;;;;;4862905;29;19951;-84
2023/10/13 09:33:01;;;;;;;;;;;18.30;99.90;;;;;;4854507;29;19997;-84
2023/10/13 09:35:28;;;;;;;;;;;18.30;99.90;;;;;;4862552;29;19928;-87
2023/10/13 09:37:56;;;;;;;;;;;18.30;99.90;;;;;;4862689;29;19975;-85
2023/10/13 09:40:34;;;;;;;;;;;18.20;99.90;;;;;;4862748;29;19928;-88
2023/10/13 09:43:05;;;;;;;;;;;18.20;99.90;;;;;;4864393;29;19928;-84
2023/10/13 09:45:56;;;;;;;;;;;18.20;99.90;;;;;;4866150;29;19988;-84
2023/10/13 09:48:29;;;;;;;;;;;18.30;99.90;;;;;;4864002;29;19935;-85
2023/10/13 09:50:57;;;;;;;;;;;18.30;99.90;;;;;;4864831;29;20415;-85
2023/10/13 09:53:23;;;;;;;;;;;18.30;99.90;;;;;;4863543;29;19935;-87
2023/10/13 09:56:28;;;;;;;;;;;18.20;99.90;;;;;;4862188;29;19928;-86
2023/10/13 09:59:12;;;;;;;;;;;18.30;99.90;;;;;;4851209;29;20039;-86
2023/10/13 10:01:51;;;;;;;;;;;18.30;99.90;;;;;;4861114;29;19980;-85
2023/10/13 10:04:18;;;;;;;;;;;18.30;99.90;;;;;;4862006;29;20299;-88
2023/10/13 10:06:54;;;;;;;;;;;18.40;99.90;;;;;;4861452;29;19983;-84
2023/10/13 10:09:30;;;;;;;;;;;18.40;99.90;;;;;;4862310;29;19928;-87
2023/10/13 10:12:18;;;;;;;;;;;18.50;99.90;;;;;;4861376;29;20368;-89
2023/10/13 10:15:01;;;;;;;;;;;18.60;99.90;;;;;;4862367;29;19928;-90
2023/10/13 10:17:29;;;;;;;;;;;18.60;99.90;;;;;;4862790;29;20026;-86
2023/10/13 10:19:56;;;;;;;;;;;18.70;99.90;;;;;;4862447;29;20279;-87
2023/10/13 10:22:33;;;;;;;;;;;18.70;99.90;;;;;;4845258;29;19928;-87
2023/10/13 10:25:02;;;;;;;;;;;18.80;99.90;;;;;;4861542;29;19928;-85
2023/10/13 10:27:31;;;;;;;;;;;18.90;99.90;;;;;;4861249;29;19928;-87
2023/10/13 10:29:57;;;;;;;;;;;18.90;99.90;;;;;;4861081;29;19985;-85
2023/10/13 10:32:33;;;;;;;;;;;18.90;99.90;;;;;;4862620;29;19924;-88
2023/10/13 10:35:14;;;;;;;;;;;18.90;99.90;;;;;;4861678;29;19935;-86
2023/10/13 10:37:46;;;;;;;;;;;18.80;99.90;;;;;;4862075;29;20241;-84
2023/10/13 10:43:08;;;;;;;;;;;18.80;99.90;;;;;;4860757;29;19940;-86
2023/10/13 10:45:35;;;;;;;;;;;18.80;99.90;;;;;;4831752;29;20011;-89
2023/10/13 10:48:17;;;;;;;;;;;18.90;99.90;;;;;;4860724;29;20027;-86
2023/10/13 10:50:43;;;;;;;;;;;18.90;99.90;;;;;;4862472;29;19928;-86
2023/10/13 10:53:09;;;;;;;;;;;18.90;99.90;;;;;;4860716;29;19928;-86
2023/10/13 10:55:36;;;;;;;;;;;18.90;99.90;;;;;;4861789;29;19932;-85
2023/10/13 10:58:05;;;;;;;;;;;19.00;99.90;;;;;;4861608;29;19928;-87
2023/10/13 11:00:45;;;;;;;;;;;18.90;99.90;;;;;;4860860;29;19932;-86
2023/10/13 11:03:11;;;;;;;;;;;19.00;99.90;;;;;;4861834;29;20388;-88
2023/10/13 11:05:44;;;;;;;;;;;19.00;99.90;;;;;;4861672;29;19928;-84
2023/10/13 11:08:24;;;;;;;;;;;19.00;99.90;;;;;;4861542;29;19928;-86
2023/10/13 11:10:50;;;;;;;;;;;19.10;99.90;;;;;;4861802;29;19928;-87
2023/10/13 11:13:21;;;;;;;;;;;19.10;99.90;;;;;;4860276;29;20287;-87
2023/10/13 11:15:48;;;;;;;;;;;19.10;99.90;;;;;;4862348;29;19970;-87
2023/10/13 11:18:20;;;;;;;;;;;19.10;99.90;;;;;;4861355;29;19963;-85
2023/10/13 11:20:47;;;;;;;;;;;19.20;99.90;;;;;;4860774;29;19928;-87
2023/10/13 11:23:13;;;;;;;;;;;19.20;99.90;;;;;;4861293;29;19932;-85
2023/10/13 11:25:39;;;;;;;;;;;19.20;99.90;;;;;;4860475;29;19932;-87
2023/10/13 11:28:17;;;;;;;;;;;19.30;99.90;;;;;;4861070;29;20393;-85
2023/10/13 11:30:45;;;;;;;;;;;19.30;99.90;;;;;;4861254;29;19928;-86
2023/10/13 11:33:11;;;;;;;;;;;19.30;99.90;;;;;;4861487;29;20008;-84
2023/10/13 11:38:29;;;;;;;;;;;19.60;99.90;;;;;;4862164;29;20352;-85
2023/10/13 11:48:36;;;;;;;;;;;20.00;99.90;;;;;;4870165;29;19932;-86
2023/10/13 11:51:24;;;;;;;;;;;20.10;99.90;;;;;;4870835;29;19932;-84
2023/10/13 11:53:55;;;;;;;;;;;20.00;99.90;;;;;;4869070;29;20031;-83
2023/10/13 11:56:21;;;;;;;;;;;19.90;99.90;;;;;;4853541;29;19935;-85
2023/10/13 11:58:47;;;;;;;;;;;19.90;99.90;;;;;;4869497;29;19928;-84
2023/10/13 12:06:35;;;;;;;;;;;19.80;99.90;;;;;;4869062;29;20352;-88
2023/10/13 12:09:32;;;;;;;;;;;19.80;99.90;;;;;;4853009;29;19932;-83
2023/10/13 12:12:00;;;;;;;;;;;19.80;99.90;;;;;;4867480;29;19947;-85
2023/10/13 12:15:09;;;;;;;;;;;19.80;99.90;;;;;;4852586;29;20023;-86
2023/10/13 12:17:18;;;;;;;;;;;19.80;99.90;;;;;;4859786;29;19935;-86
2023/10/13 12:19:51;;;;;;;;;;;19.80;99.90;;;;;;4868782;29;19929;-82
2023/10/13 12:22:25;;;;;;;;;;;19.80;99.90;;;;;;4869160;29;20372;-87
2023/10/13 12:24:53;;;;;;;;;;;19.80;99.90;;;;;;4868120;29;19928;-85
2023/10/13 12:27:19;;;;;;;;;;;19.90;99.90;;;;;;4869261;29;20038;-87
2023/10/13 12:29:48;;;;;;;;;;;19.90;99.90;;;;;;4867597;29;20111;-86
2023/10/13 12:32:20;;;;;;;;;;;19.90;99.90;;;;;;4868015;29;19934;-86
2023/10/13 12:34:57;;;;;;;;;;;19.90;99.90;;;;;;4868391;29;19935;-84
2023/10/13 12:54:35;;;;;;;;;;;20.20;99.90;;;;;;4868497;29;20268;-84
2023/10/13 12:56:56;;;;;;;;;;;20.30;99.90;;;;;;4863799;29;20332;-86
2023/10/13 12:59:26;;;;;;;;;;;20.30;99.90;;;;;;4867936;29;19967;-87
2023/10/13 13:01:52;;;;;;;;;;;20.30;99.90;;;;;;4869173;29;19928;-86
2023/10/13 13:04:20;;;;;;;;;;;20.20;99.90;;;;;;4869049;29;19943;-89
2023/10/13 13:06:46;;;;;;;;;;;20.20;99.90;;;;;;4867893;29;19932;-87
2023/10/13 13:09:12;;;;;;;;;;;20.30;99.90;;;;;;4867048;29;19932;-86
2023/10/13 13:11:40;;;;;;;;;;;20.30;99.90;;;;;;4868184;29;19928;-89
2023/10/13 13:14:07;;;;;;;;;;;20.30;99.90;;;;;;4850869;29;19935;-87
2023/10/13 13:16:35;;;;;;;;;;;20.40;99.90;;;;;;4867538;29;19928;-86
2023/10/13 13:19:09;;;;;;;;;;;20.40;99.90;;;;;;4868428;29;19976;-87
2023/10/13 13:21:38;;;;;;;;;;;20.40;99.90;;;;;;4868225;29;19929;-86
2023/10/13 13:24:10;;;;;;;;;;;20.40;99.90;;;;;;4869260;29;19935;-85
2023/10/13 13:26:36;;;;;;;;;;;20.50;99.90;;;;;;4869031;29;19929;-87
2023/10/13 13:29:02;;;;;;;;;;;20.40;99.90;;;;;;4867868;29;20260;-86
2023/10/13 13:31:29;;;;;;;;;;;20.40;99.90;;;;;;4866529;29;19928;-85
2023/10/13 13:33:58;;;;;;;;;;;20.40;99.90;;;;;;4870069;29;20073;-85
2023/10/13 13:36:24;;;;;;;;;;;20.30;99.90;;;;;;4870399;29;19953;-86
2023/10/13 13:38:51;;;;;;;;;;;20.30;99.90;;;;;;4867142;29;19928;-85
2023/10/13 13:41:17;;;;;;;;;;;20.20;99.90;;;;;;4866252;29;19928;-85
2023/10/13 13:44:29;;;;;;;;;;;20.10;99.90;;;;;;4865476;29;20295;-85
2023/10/13 13:46:32;;;;;;;;;;;20.00;99.90;;;;;;4858781;29;19979;-87
2023/10/13 13:48:59;;;;;;;;;;;19.80;99.90;;;;;;4849795;29;20284;-85
2023/10/13 13:51:29;;;;;;;;;;;19.70;99.90;;;;;;4865467;29;19939;-88
2023/10/13 13:53:55;;;;;;;;;;;19.50;99.90;;;;;;4865352;29;19928;-83
2023/10/13 13:56:25;;;;;;;;;;;19.40;99.90;;;;;;4865983;29;19934;-86
2023/10/13 13:58:51;;;;;;;;;;;19.20;99.90;;;;;;4865374;29;19977;-85
2023/10/13 14:01:21;;;;;;;;;;;19.10;99.90;;;;;;4866960;29;20476;-83
2023/10/13 14:03:51;;;;;;;;;;;19.00;99.90;;;;;;4866173;29;19928;-86
2023/10/13 14:06:24;;;;;;;;;;;18.90;99.90;;;;;;4867751;29;20398;-85
2023/10/13 14:08:59;;;;;;;;;;;18.80;99.90;;;;;;4867569;29;19960;-86
2023/10/13 14:14:12;;;;;;;;;;;18.80;99.90;;;;;;4868588;29;19928;-85
2023/10/13 14:16:45;;;;;;;;;;;18.80;99.90;;;;;;4867186;29;19928;-87
2023/10/13 14:19:11;;;;;;;;;;;18.80;99.90;;;;;;4867161;29;19982;-87
2023/10/13 14:21:42;;;;;;;;;;;18.80;99.90;;;;;;4851617;29;19935;-87
2023/10/13 14:24:14;;;;;;;;;;;18.70;99.90;;;;;;4866500;29;19944;-88
2023/10/13 14:26:42;;;;;;;;;;;18.80;99.90;;;;;;4868173;29;19928;-87
2023/10/13 14:29:13;;;;;;;;;;;18.70;99.90;;;;;;4868846;29;19953;-87
2023/10/13 14:31:39;;;;;;;;;;;18.70;99.90;;;;;;4851128;29;20375;-87
2023/10/13 14:34:06;;;;;;;;;;;18.70;99.90;;;;;;4867592;29;19936;-86
2023/10/13 14:36:34;;;;;;;;;;;18.70;99.90;;;;;;4867158;29;19928;-86
2023/10/13 14:39:00;;;;;;;;;;;18.80;99.90;;;;;;4867174;29;19928;-86
2023/10/13 14:41:26;;;;;;;;;;;18.70;99.90;;;;;;4867699;29;19983;-87
2023/10/13 14:43:51;;;;;;;;;;;18.70;99.90;;;;;;4868723;29;20399;-87
2023/10/13 14:46:23;;;;;;;;;;;18.70;99.90;;;;;;4867782;29;20443;-86
2023/10/13 14:48:51;;;;;;;;;;;18.70;99.90;;;;;;4867482;29;19954;-86
2023/10/13 14:51:18;;;;;;;;;;;18.70;99.90;;;;;;4866452;29;19935;-91
2023/10/13 14:53:44;;;;;;;;;;;18.70;99.90;;;;;;4867502;29;20470;-88
2023/10/13 14:56:14;;;;;;;;;;;18.70;99.90;;;;;;4867525;29;19955;-87
2023/10/13 14:58:43;;;;;;;;;;;18.60;99.90;;;;;;4868227;29;19962;-92
2023/10/13 15:01:13;;;;;;;;;;;18.60;99.90;;;;;;4867723;29;19928;-85
2023/10/13 15:03:39;;;;;;;;;;;18.50;99.90;;;;;;4851267;29;20307;-87
2023/10/13 15:06:04;;;;;;;;;;;18.50;99.90;;;;;;4866027;29;20085;-88
2023/10/13 15:08:30;;;;;;;;;;;18.40;99.90;;;;;;4866562;29;19928;-93
2023/10/13 15:10:56;;;;;;;;;;;18.40;99.90;;;;;;4866413;29;20376;-85
2023/10/13 15:13:24;;;;;;;;;;;18.30;99.90;;;;;;4870118;29;19928;-93
2023/10/13 15:15:53;;;;;;;;;;;18.20;99.90;;;;;;4870866;29;20380;-87
2023/10/13 15:18:18;;;;;;;;;;;18.10;99.90;;;;;;4872351;29;19985;-90
2023/10/13 15:20:47;;;;;;;;;;;18.10;99.90;;;;;;4871658;29;19960;-90
2023/10/13 15:23:14;;;;;;;;;;;18.10;99.90;;;;;;4870910;29;19928;-89
2023/10/13 15:25:49;;;;;;;;;;;18.10;99.90;;;;;;4871713;29;19928;-89
2023/10/13 15:28:18;;;;;;;;;;;18.00;99.90;;;;;;4871931;29;19932;-90
2023/10/13 15:31:09;;;;;;;;;;;18.00;99.90;;;;;;4870820;29;19935;-88
2023/10/13 15:33:35;;;;;;;;;;;18.00;99.90;;;;;;4854760;29;20019;-88
2023/10/13 15:36:01;;;;;;;;;;;17.90;99.90;;;;;;4871552;29;19975;-86
2023/10/13 15:38:29;;;;;;;;;;;17.90;99.90;;;;;;4866032;29;20336;-84
2023/10/13 15:40:54;;;;;;;;;;;17.90;99.90;;;;;;4864648;29;19928;-84
2023/10/13 15:43:20;;;;;;;;;;;17.80;99.90;;;;;;4865267;29;19936;-85
2023/10/13 15:45:46;;;;;;;;;;;17.80;99.90;;;;;;4865167;29;20010;-83
2023/10/13 15:48:11;;;;;;;;;;;17.80;99.90;;;;;;4864480;29;20384;-85
2023/10/13 15:50:40;;;;;;;;;;;17.80;99.90;;;;;;4864440;29;20292;-87
2023/10/13 15:53:12;;;;;;;;;;;17.80;99.90;;;;;;4864551;29;20261;-83
2023/10/13 15:55:38;;;;;;;;;;;17.90;99.90;;;;;;4864967;29;19928;-85
2023/10/13 15:58:09;;;;;;;;;;;17.80;99.90;;;;;;4864725;29;19951;-85
2023/10/13 16:00:35;;;;;;;;;;;17.80;99.90;;;;;;4864539;29;20004;-84
2023/10/13 16:03:01;;;;;;;;;;;17.80;99.90;;;;;;4864546;29;20308;-91
2023/10/13 16:05:34;;;;;;;;;;;17.70;99.90;;;;;;4848500;29;19967;-89
2023/10/13 16:08:00;;;;;;;;;;;17.70;99.90;;;;;;4849233;29;19928;-84
2023/10/13 16:10:26;;;;;;;;;;;17.70;99.90;;;;;;4862870;29;19939;-84
2023/10/13 16:12:57;;;;;;;;;;;17.70;99.90;;;;;;4863221;29;19935;-84
2023/10/13 16:15:23;;;;;;;;;;;17.70;99.90;;;;;;4863883;29;19935;-87
2023/10/13 16:17:49;;;;;;;;;;;17.70;99.90;;;;;;4863255;29;19928;-85
2023/10/13 16:20:17;;;;;;;;;;;17.70;99.90;;;;;;4864427;29;20797;-87
2023/10/13 16:22:43;;;;;;;;;;;17.70;99.90;;;;;;4862609;29;19928;-88
2023/10/13 16:25:11;;;;;;;;;;;17.60;99.90;;;;;;4862604;29;19977;-84
2023/10/13 16:27:41;;;;;;;;;;;17.60;99.90;;;;;;4862506;29;19928;-87
2023/10/13 16:30:14;;;;;;;;;;;17.60;99.90;;;;;;4863799;29;19936;-89
2023/10/13 16:32:45;;;;;;;;;;;17.60;99.90;;;;;;4863878;29;20293;-84
2023/10/13 16:35:17;;;;;;;;;;;17.50;99.90;;;;;;4863827;29;19951;-85
2023/10/13 16:37:44;;;;;;;;;;;17.50;99.90;;;;;;4864086;29;19976;-84
2023/10/13 16:40:10;;;;;;;;;;;17.60;99.90;;;;;;4863426;29;20069;-84
2023/10/13 16:42:39;;;;;;;;;;;17.50;99.90;;;;;;4862999;29;19976;-83
2023/10/13 16:45:25;;;;;;;;;;;17.50;99.90;;;;;;4864069;29;19935;-85
2023/10/13 16:47:53;;;;;;;;;;;17.50;99.90;;;;;;4863676;29;19956;-84
2023/10/13 16:50:21;;;;;;;;;;;17.50;99.90;;;;;;4863285;29;19936;-86
2023/10/13 16:52:47;;;;;;;;;;;17.60;99.90;;;;;;4863283;29;19928;-87
2023/10/13 16:55:14;;;;;;;;;;;17.60;99.90;;;;;;4863241;29;20015;-85
2023/10/13 16:57:40;;;;;;;;;;;17.50;99.90;;;;;;4863204;29;19936;-85
2023/10/13 17:00:06;;;;;;;;;;;17.60;99.90;;;;;;4863232;29;19932;-84
2023/10/13 17:02:34;;;;;;;;;;;17.50;99.90;;;;;;4846414;29;20011;-88
2023/10/13 17:04:59;;;;;;;;;;;17.60;99.90;;;;;;4862775;29;19928;-86
2023/10/13 17:07:28;;;;;;;;;;;17.60;99.90;;;;;;4869115;29;19935;-91
2023/10/13 17:09:56;;;;;;;;;;;17.60;99.90;;;;;;4868617;29;19928;-84
2023/10/13 17:12:22;;;;;;;;;;;17.70;99.90;;;;;;4869161;29;19928;-89
2023/10/13 17:14:48;;;;;;;;;;;17.70;99.90;;;;;;4868190;29;19928;-84
2023/10/13 17:17:14;;;;;;;;;;;17.70;99.90;;;;;;4869170;29;19967;-85
2023/10/13 17:19:39;;;;;;;;;;;17.80;99.90;;;;;;4869970;29;19928;-89
2023/10/13 17:22:05;;;;;;;;;;;17.80;99.90;;;;;;4869016;29;19932;-86
2023/10/13 17:24:33;;;;;;;;;;;17.90;99.90;;;;;;4867995;29;19936;-87
2023/10/13 17:27:02;;;;;;;;;;;17.90;99.90;;;;;;4870630;29;19928;-85
2023/10/13 17:29:28;;;;;;;;;;;17.90;99.90;;;;;;4852588;29;19935;-86
2023/10/13 17:31:58;;;;;;;;;;;17.90;99.90;;;;;;4866525;29;19968;-84
2023/10/13 17:34:28;;;;;;;;;;;17.90;99.90;;;;;;4866285;29;20407;-83
2023/10/13 17:36:56;;;;;;;;;;;17.90;99.90;;;;;;4865816;29;19924;-84
2023/10/13 17:39:21;;;;;;;;;;;17.90;99.90;;;;;;4867621;29;19928;-83
2023/10/13 17:41:48;;;;;;;;;;;17.90;99.90;;;;;;4866518;29;19991;-87
2023/10/13 17:44:14;;;;;;;;;;;17.80;99.90;;;;;;4867606;29;19953;-85
2023/10/13 17:46:40;;;;;;;;;;;17.80;99.90;;;;;;4852058;29;19928;-87
2023/10/13 17:49:05;;;;;;;;;;;17.80;99.90;;;;;;4868141;29;19987;-87